Time;durP1;ratioP1;P1;durP2;ratioP2;P2;SDS_P1;SDS_P2;PMS_P1;PMS_P2;Temp;Humidity;BMP_temperature;BMP_pressure;BME280_temperature;BME280_humidity;BME280_pressure;Samples;Min_cycle;Max_cycle;Signal;HPM_P1;HPM_P2
2021/03/24 00:00:13;;;;;;;20.67;18.07;;;0.90;99.90;;;1.85;78.89;98786.28;5225280;28;20191;-61
2021/03/24 00:02:46;;;;;;;20.83;17.93;;;0.80;99.90;;;1.76;78.97;98787.09;5220108;28;20197;-60
2021/03/24 00:05:19;;;;;;;19.93;16.73;;;0.80;99.90;;;1.72;79.08;98786.63;5225668;28;20240;-61
2021/03/24 00:07:51;;;;;;;21.20;17.50;;;0.80;99.90;;;1.65;78.91;98794.25;5225190;28;20286;-61
2021/03/24 00:10:26;;;;;;;20.03;17.10;;;0.70;99.90;;;1.66;79.80;98789.41;5225479;28;20714;-61
2021/03/24 00:13:00;;;;;;;20.97;16.83;;;0.70;99.90;;;1.62;79.01;98789.78;5225923;28;20241;-60
2021/03/24 00:15:32;;;;;;;22.13;18.07;;;0.70;99.90;;;1.61;79.75;98793.03;5225768;28;20646;-61
2021/03/24 00:18:07;;;;;;;23.47;18.23;;;0.70;99.90;;;1.44;80.00;98788.72;5225469;28;20222;-61
2021/03/24 00:20:42;;;;;;;21.70;16.93;;;0.70;99.90;;;1.38;79.67;98787.19;5225224;28;20315;-61
2021/03/24 00:23:14;;;;;;;24.23;18.57;;;0.60;99.90;;;1.42;80.43;98779.22;5225776;28;20215;-59
2021/03/24 00:25:46;;;;;;;20.67;17.87;;;0.60;99.90;;;1.41;80.17;98783.34;5225443;28;20289;-60
2021/03/24 00:28:19;;;;;;;23.03;17.80;;;0.60;99.90;;;1.41;80.67;98777.44;5224921;28;20195;-61
2021/03/24 00:30:52;;;;;;;22.03;18.60;;;0.60;99.90;;;1.36;79.96;98789.53;5225767;28;20670;-59
2021/03/24 00:33:26;;;;;;;21.73;17.17;;;0.60;99.90;;;1.35;80.92;98780.19;5225449;28;20220;-61
2021/03/24 00:35:59;;;;;;;21.30;18.47;;;0.60;99.90;;;1.26;80.87;98780.09;5225580;28;20202;-61
2021/03/24 00:38:31;;;;;;;19.10;16.87;;;0.60;99.90;;;1.22;80.83;98784.63;5224938;28;20296;-60
2021/03/24 00:41:05;;;;;;;24.80;18.40;;;0.50;99.90;;;1.20;80.40;98784.44;5224901;28;20222;-60
2021/03/24 00:43:37;;;;;;;21.17;18.20;;;0.50;99.90;;;1.12;80.72;98783.66;5225395;28;20306;-61
2021/03/24 00:46:10;;;;;;;20.93;17.83;;;0.40;99.90;;;1.09;81.02;98779.91;5225370;28;20202;-60
2021/03/24 00:48:43;;;;;;;22.67;18.23;;;0.40;99.90;;;1.11;81.02;98780.94;5225036;28;20204;-60
2021/03/24 00:51:16;;;;;;;21.93;18.57;;;0.40;99.90;;;1.16;81.48;98779.81;5225063;28;20492;-60
2021/03/24 00:53:48;;;;;;;21.77;18.87;;;0.40;99.90;;;1.16;81.52;98778.94;5225347;28;20523;-61
2021/03/24 00:56:20;;;;;;;26.13;20.50;;;0.40;99.90;;;1.23;80.97;98773.81;5228340;28;20293;-60
2021/03/24 00:58:52;;;;;;;25.43;19.90;;;0.40;99.90;;;1.22;81.44;98767.00;5229222;28;20286;-61
2021/03/24 01:01:24;;;;;;;23.47;18.30;;;0.40;99.90;;;1.27;81.44;98766.78;5228359;28;20222;-58
2021/03/24 01:03:56;;;;;;;24.00;18.70;;;0.50;99.90;;;1.25;80.69;98763.19;5229007;28;20220;-61
2021/03/24 01:06:29;;;;;;;20.80;18.67;;;0.50;99.90;;;1.20;80.68;98771.84;5229067;28;20202;-60
2021/03/24 01:09:01;;;;;;;20.97;17.67;;;0.50;99.90;;;1.16;80.36;98769.75;5229023;28;20207;-61
2021/03/24 01:11:33;;;;;;;22.10;18.47;;;0.40;99.90;;;1.09;80.73;98762.28;5228980;28;20287;-61
2021/03/24 01:14:06;;;;;;;21.27;18.63;;;0.20;99.90;;;1.02;81.18;98759.81;5229395;28;20288;-61
2021/03/24 01:16:39;;;;;;;21.90;19.53;;;0.20;99.90;;;0.90;81.05;98762.78;5228629;28;20610;-61
2021/03/24 01:19:12;;;;;;;23.63;19.67;;;0.20;99.90;;;0.92;81.62;98757.03;5228403;28;20197;-61
2021/03/24 01:21:44;;;;;;;22.70;18.83;;;0.10;99.90;;;0.90;82.01;98756.88;5228343;28;20209;-61
2021/03/24 01:24:16;;;;;;;21.53;18.87;;;0.20;99.90;;;0.90;81.66;98756.88;5228559;28;20874;-61
2021/03/24 01:26:48;;;;;;;23.33;19.10;;;0.20;99.90;;;0.88;81.67;98750.78;5228365;28;20327;-60
2021/03/24 01:29:20;;;;;;;24.60;19.67;;;0.20;99.90;;;0.94;81.88;98755.56;5228700;28;20568;-60
2021/03/24 01:31:52;;;;;;;23.50;19.47;;;0.20;99.90;;;0.95;82.12;98752.34;5228366;28;20194;-60
2021/03/24 01:34:25;;;;;;;21.90;19.00;;;0.20;99.90;;;0.99;81.86;98759.50;5228238;28;20209;-61
2021/03/24 01:36:57;;;;;;;24.47;20.50;;;0.20;99.90;;;0.91;81.59;98753.63;5228373;28;20673;-60
2021/03/24 01:39:29;;;;;;;24.87;18.60;;;0.20;99.90;;;0.89;82.29;98743.41;5228220;28;20564;-60
2021/03/24 01:42:04;;;;;;;22.33;19.13;;;0.20;99.90;;;0.92;81.82;98742.84;5228663;28;20221;-59
2021/03/24 01:45:00;;;;;;;23.43;19.20;;;0.20;99.90;;;0.89;81.54;98745.91;5228163;28;20225;-61
2021/03/24 01:47:32;;;;;;;24.30;19.00;;;0.20;99.90;;;0.86;81.71;98742.19;5207614;28;20216;-61
2021/03/24 01:50:13;;;;;;;20.50;18.17;;;0.10;99.90;;;0.80;81.56;98744.00;5222637;28;20665;-60
2021/03/24 01:52:45;;;;;;;22.27;18.80;;;0.10;99.90;;;0.72;81.56;98737.28;5228403;28;20193;-58
2021/03/24 01:55:18;;;;;;;21.47;18.97;;;0.00;99.90;;;0.71;81.93;98730.44;5227960;28;20201;-61
2021/03/24 01:57:50;;;;;;;24.47;18.33;;;0.00;99.90;;;0.65;81.66;98725.63;5228033;28;20294;-61
2021/03/24 02:00:30;;;;;;;22.47;19.60;;;0.00;99.90;;;0.73;82.42;98724.84;5228030;28;20220;-60
2021/03/24 02:03:05;;;;;;;24.30;19.27;;;0.00;99.90;;;0.70;82.00;98734.59;5228414;28;20221;-61
2021/03/24 02:05:38;;;;;;;28.23;20.83;;;0.00;99.90;;;0.69;82.22;98735.31;5227960;28;20648;-61
2021/03/24 02:08:17;;;;;;;23.77;19.73;;;0.00;99.90;;;0.66;82.29;98730.84;5226605;28;20201;-59
2021/03/24 02:10:56;;;;;;;27.00;20.03;;;0.00;99.90;;;0.77;82.13;98731.09;5224754;28;20197;-60
2021/03/24 02:13:33;;;;;;;25.13;19.30;;;0.10;99.90;;;0.73;82.21;98734.91;5227959;28;20689;-61
2021/03/24 02:16:15;;;;;;;22.87;19.37;;;0.10;99.90;;;0.71;82.96;98740.50;5227810;28;20201;-59
2021/03/24 02:18:49;;;;;;;25.43;19.23;;;0.10;99.90;;;0.72;82.58;98738.16;5227006;28;20189;-60
2021/03/24 02:21:27;;;;;;;24.27;20.10;;;0.10;99.90;;;0.81;81.71;98739.16;5224164;28;20217;-61
2021/03/24 02:24:13;;;;;;;24.40;19.83;;;0.10;99.90;;;0.80;82.26;98737.38;5227566;28;20282;-59
2021/03/24 02:26:52;;;;;;;23.27;19.10;;;0.00;99.90;;;0.94;81.83;98737.97;5227212;28;20680;-60
2021/03/24 02:29:24;;;;;;;21.87;19.47;;;0.00;99.90;;;0.94;81.46;98743.88;5227571;28;20225;-61
2021/03/24 02:31:59;;;;;;;23.37;18.63;;;0.00;99.90;;;0.84;81.47;98734.47;5225746;28;20605;-60
2021/03/24 02:34:33;;;;;;;22.03;18.70;;;0.00;99.90;;;0.67;81.33;98736.78;5227178;28;20213;-61
2021/03/24 02:37:07;;;;;;;21.40;18.43;;;-0.10;99.90;;;0.67;81.22;98729.22;5227282;28;20585;-60
2021/03/24 02:39:42;;;;;;;22.87;19.23;;;-0.10;99.90;;;0.65;81.38;98730.66;5226854;28;20654;-60
2021/03/24 02:42:16;;;;;;;21.67;18.43;;;-0.10;99.90;;;0.63;81.61;98729.59;5227424;28;20217;-61
2021/03/24 02:44:49;;;;;;;24.17;20.27;;;-0.10;99.90;;;0.63;81.73;98729.59;5227196;28;20240;-60
2021/03/24 02:47:22;;;;;;;24.73;19.67;;;-0.10;99.90;;;0.53;81.95;98735.25;5227333;28;20207;-61
2021/03/24 02:49:54;;;;;;;25.20;19.60;;;-0.20;99.90;;;0.60;81.91;98731.78;5226824;28;20579;-61
2021/03/24 02:52:27;;;;;;;24.63;20.63;;;-0.10;99.90;;;0.65;82.21;98736.59;5227410;28;20190;-60
2021/03/24 02:55:00;;;;;;;26.03;19.20;;;-0.10;99.90;;;0.54;81.94;98738.66;5226630;28;20202;-59
2021/03/24 02:57:32;;;;;;;26.13;19.77;;;-0.20;99.90;;;0.58;81.97;98729.13;5226204;28;20197;-59
2021/03/24 03:00:08;;;;;;;22.17;19.13;;;-0.20;99.90;;;0.62;81.94;98725.31;5226586;28;20293;-61
2021/03/24 03:02:54;;;;;;;21.00;17.57;;;-0.10;99.90;;;0.56;81.53;98729.66;5226656;28;20216;-60
2021/03/24 03:05:30;;;;;;;24.43;19.57;;;-0.20;99.90;;;0.45;81.76;98731.00;5226816;28;20270;-59
2021/03/24 03:08:08;;;;;;;24.30;19.27;;;-0.30;99.90;;;0.43;82.33;98733.38;5226454;28;20200;-59
2021/03/24 03:10:49;;;;;;;22.03;18.87;;;-0.30;99.90;;;0.50;82.07;98731.53;5226504;28;20204;-60
2021/03/24 03:13:31;;;;;;;22.67;18.67;;;-0.30;99.90;;;0.57;81.92;98722.31;5212061;28;20219;-60
2021/03/24 03:16:10;;;;;;;23.30;18.43;;;-0.30;99.90;;;0.52;81.79;98722.53;5226876;28;20225;-59
2021/03/24 03:18:49;;;;;;;23.67;18.47;;;-0.30;99.90;;;0.48;82.15;98725.41;5226178;28;20229;-61
2021/03/24 03:21:27;;;;;;;25.43;19.40;;;-0.30;99.90;;;0.47;81.87;98714.47;5206188;28;20221;-61
2021/03/24 03:24:02;;;;;;;23.17;19.03;;;-0.20;99.90;;;0.45;82.24;98728.50;5215213;28;20221;-60
2021/03/24 03:26:36;;;;;;;23.73;18.40;;;-0.30;99.90;;;0.55;81.85;98725.38;5226557;28;20200;-61
2021/03/24 03:29:13;;;;;;;24.07;19.67;;;-0.30;99.90;;;0.54;82.02;98737.03;5226055;28;20249;-61
2021/03/24 03:31:50;;;;;;;27.77;19.93;;;-0.20;99.90;;;0.60;81.89;98731.78;5226346;28;20197;-60
2021/03/24 03:34:25;;;;;;;24.73;18.97;;;-0.30;99.90;;;0.54;81.90;98723.56;5226035;28;20223;-59
2021/03/24 03:36:59;;;;;;;22.90;18.57;;;-0.40;99.90;;;0.56;81.02;98733.06;5226018;28;20200;-60
2021/03/24 03:39:32;;;;;;;21.30;17.70;;;-0.40;99.90;;;0.50;80.86;98721.47;5225861;28;20195;-60
2021/03/24 03:42:07;;;;;;;22.03;17.40;;;-0.50;99.90;;;0.48;80.96;98722.91;5225934;28;20600;-62
2021/03/24 03:44:40;;;;;;;20.10;17.30;;;-0.50;99.90;;;0.40;81.04;98728.00;5241333;22;20586;-56
2021/03/24 03:47:14;;;;;;;21.60;18.07;;;-0.50;99.90;;;0.39;80.33;98721.16;5226321;28;20300;-54
2021/03/24 03:49:47;;;;;;;20.90;18.47;;;-0.50;99.90;;;0.34;81.35;98716.34;5230172;28;20513;-56
2021/03/24 03:52:36;;;;;;;23.40;19.00;;;-0.50;99.90;;;0.34;81.19;98713.84;5227857;28;20197;-56
2021/03/24 03:55:19;;;;;;;23.10;19.27;;;-0.50;99.90;;;0.35;80.88;98724.09;5205897;28;20585;-58
2021/03/24 03:57:55;;;;;;;22.00;18.50;;;-0.50;99.90;;;0.37;81.02;98731.78;5205784;28;20204;-58
2021/03/24 04:00:32;;;;;;;21.50;18.10;;;-0.50;99.90;;;0.22;81.22;98726.84;5210567;28;20197;-57
2021/03/24 04:03:10;;;;;;;22.80;17.90;;;-0.70;99.90;;;0.15;80.32;98728.53;5226172;28;20228;-56
2021/03/24 04:05:45;;;;;;;20.23;17.57;;;-0.70;99.90;;;0.08;81.24;98721.91;5222816;28;20198;-58
2021/03/24 04:08:22;;;;;;;23.40;18.13;;;-0.80;99.90;;;0.07;81.51;98722.66;5205105;28;20197;-55
2021/03/24 04:10:59;;;;;;;22.90;18.60;;;-0.70;99.90;;;0.14;81.53;98731.75;5206894;28;20618;-56
2021/03/24 04:13:35;;;;;;;25.50;19.53;;;-0.70;99.90;;;0.18;81.54;98733.91;5205456;28;20232;-56
2021/03/24 04:16:07;;;;;;;23.37;18.37;;;-0.70;99.90;;;0.20;81.67;98739.97;5205885;28;20197;-58
2021/03/24 04:18:46;;;;;;;22.83;18.33;;;-0.70;99.90;;;0.14;81.46;98737.69;5205535;28;20619;-56
2021/03/24 04:21:20;;;;;;;22.87;18.33;;;-0.60;99.90;;;0.14;81.48;98736.78;5225288;28;20312;-59
2021/03/24 04:24:05;;;;;;;24.17;19.10;;;-0.70;99.90;;;0.13;81.70;98730.88;5218784;28;20218;-56
2021/03/24 04:26:43;;;;;;;24.13;19.03;;;-0.70;99.90;;;0.11;81.71;98737.34;5205198;28;20584;-55
2021/03/24 04:29:20;;;;;;;23.50;18.10;;;-0.70;99.90;;;0.15;80.77;98738.59;5211940;28;20186;-56
2021/03/24 04:31:56;;;;;;;22.53;17.47;;;-0.80;99.90;;;0.09;81.00;98732.88;5226468;28;20723;-55
2021/03/24 04:34:30;;;;;;;23.83;18.90;;;-0.80;99.90;;;-0.09;80.46;98740.13;5230020;28;20224;-59
2021/03/24 04:37:08;;;;;;;24.13;18.37;;;-0.90;99.90;;;-0.07;81.08;98741.22;5219687;28;20201;-59
2021/03/24 04:39:46;;;;;;;23.40;18.23;;;-0.90;99.90;;;-0.15;81.53;98739.44;5209467;28;20268;-57
2021/03/24 04:42:23;;;;;;;23.97;18.50;;;-1.00;99.90;;;-0.13;81.73;98742.16;5220877;28;20311;-54
2021/03/24 04:44:57;;;;;;;23.97;18.83;;;-0.90;99.90;;;-0.13;81.21;98747.19;5229091;28;20443;-58
2021/03/24 04:47:34;;;;;;;22.00;18.13;;;-0.90;99.90;;;-0.22;81.34;98738.63;5214183;28;20198;-55
2021/03/24 04:50:20;;;;;;;23.60;17.73;;;-1.00;99.90;;;-0.18;82.39;98746.66;5217478;28;20238;-55
2021/03/24 04:52:54;;;;;;;23.00;17.77;;;-0.90;99.90;;;-0.20;81.62;98752.22;5228167;28;20597;-55
2021/03/24 04:55:40;;;;;;;25.67;19.00;;;-0.90;99.90;;;-0.16;81.56;98745.22;5229035;28;20207;-56
2021/03/24 04:58:28;;;;;;;23.17;18.37;;;-1.00;99.90;;;-0.24;81.49;98745.97;5222964;28;20636;-57
2021/03/24 05:01:07;;;;;;;22.03;18.03;;;-1.00;99.90;;;-0.16;81.71;98750.22;5217917;28;20302;-57
2021/03/24 05:03:43;;;;;;;24.17;18.53;;;-0.90;99.90;;;0.02;81.55;98743.84;5221078;28;20303;-56
2021/03/24 05:06:26;;;;;;;23.57;18.00;;;-0.90;99.90;;;-0.09;81.90;98747.66;5217463;28;20668;-58
2021/03/24 05:08:59;;;;;;;21.90;18.63;;;-0.80;99.90;;;-0.17;81.92;98748.47;5209881;28;20232;-57
2021/03/24 05:11:35;;;;;;;21.87;18.27;;;-0.90;99.90;;;-0.20;81.98;98740.59;5221472;28;20224;-58
2021/03/24 05:14:25;;;;;;;26.17;18.60;;;-1.00;99.90;;;-0.17;82.56;98745.94;5223113;28;20213;-55
2021/03/24 05:17:11;;;;;;;21.60;18.20;;;-0.90;99.90;;;-0.13;82.15;98748.06;5211726;28;20202;-56
2021/03/24 05:19:45;;;;;;;22.13;18.47;;;-0.90;99.90;;;-0.03;81.90;98747.47;5220481;28;20193;-58
2021/03/24 05:22:33;;;;;;;22.50;18.43;;;-0.90;99.90;;;-0.05;82.46;98754.84;5216398;28;20648;-54
2021/03/24 05:25:16;;;;;;;23.33;17.60;;;-0.90;99.90;;;-0.09;81.36;98752.69;5218034;28;20289;-55
2021/03/24 05:27:54;;;;;;;22.43;17.97;;;-0.90;99.90;;;-0.06;80.95;98758.09;5228677;28;20296;-55
2021/03/24 05:30:30;;;;;;;25.57;17.90;;;-0.90;99.90;;;-0.04;81.64;98755.75;5213092;28;20190;-56
2021/03/24 05:33:05;;;;;;;23.33;17.73;;;-0.90;99.90;;;-0.01;81.46;98759.47;5217981;28;20193;-58
2021/03/24 05:35:47;;;;;;;23.73;18.60;;;-1.00;99.90;;;-0.15;80.77;98763.69;5220640;28;20618;-59
2021/03/24 05:38:25;;;;;;;20.90;16.30;;;-1.00;99.90;;;-0.18;81.20;98766.75;5209286;28;20536;-59
2021/03/24 05:41:06;;;;;;;21.93;17.03;;;-1.00;99.90;;;-0.10;80.22;98766.00;5220700;28;20202;-57
2021/03/24 05:44:08;;;;;;;24.00;17.93;;;-1.10;99.90;;;-0.10;80.27;98767.63;5208411;28;20217;-55
2021/03/24 05:46:59;;;;;;;22.23;17.30;;;-1.00;99.90;;;-0.10;80.01;98765.09;5210251;28;20182;-57
2021/03/24 05:49:41;;;;;;;22.50;17.73;;;-1.00;99.90;;;-0.12;80.86;98771.56;5208029;28;20684;-58
2021/03/24 05:52:31;;;;;;;20.73;17.13;;;-0.90;99.90;;;0.00;80.49;98767.94;5213989;28;20200;-55
2021/03/24 05:55:24;;;;;;;22.73;17.90;;;-0.90;99.90;;;0.16;79.44;98773.03;5214716;28;20217;-57
2021/03/24 05:58:10;;;;;;;24.37;17.70;;;-0.90;99.90;;;0.22;79.68;98764.56;5221414;28;20198;-59
2021/03/24 06:00:48;;;;;;;24.17;18.10;;;-0.80;99.90;;;0.38;79.47;98762.13;5217202;28;20202;-55
2021/03/24 06:03:48;;;;;;;23.33;18.07;;;-0.60;99.90;;;0.43;79.86;98758.50;5225815;28;20211;-58
2021/03/24 06:07:03;;;;;;;23.63;18.70;;;-0.40;99.90;;;0.51;79.69;98761.84;5213777;28;20573;-57
2021/03/24 06:10:02;;;;;;;25.50;19.63;;;-0.30;99.90;;;0.67;80.25;98769.47;5213828;28;20190;-58
2021/03/24 06:13:02;;;;;;;23.27;18.13;;;-0.20;99.90;;;0.78;79.94;98764.00;5207542;28;20212;-55
2021/03/24 06:15:56;;;;;;;20.53;16.77;;;0.00;99.90;;;0.94;79.14;98765.66;5210393;28;20282;-57
2021/03/24 06:18:38;;;;;;;25.90;18.73;;;0.10;99.90;;;0.85;78.66;98773.97;5207645;28;20661;-58
2021/03/24 06:21:22;;;;;;;24.30;18.63;;;0.10;99.90;;;1.11;78.25;98770.88;5227212;28;20198;-55
2021/03/24 06:24:08;;;;;;;26.43;19.73;;;0.20;99.90;;;1.37;78.23;98765.22;5217060;28;20252;-58
2021/03/24 06:27:39;;;;;;;24.47;19.47;;;0.30;99.90;;;1.82;78.19;98768.31;5227907;28;20263;-55
2021/03/24 06:30:40;;;;;;;24.00;19.03;;;0.60;99.90;;;2.39;75.76;98767.56;5204980;28;20551;-57
2021/03/24 06:33:47;;;;;;;22.97;18.40;;;1.00;99.90;;;2.82;74.44;98762.72;5206570;28;20655;-58
2021/03/24 06:36:59;;;;;;;23.67;18.67;;;1.40;99.90;;;3.36;73.12;98765.59;5221694;28;20201;-57
2021/03/24 06:39:56;;;;;;;22.03;17.93;;;1.90;99.90;;;3.85;70.61;98765.34;5218823;28;20226;-58
2021/03/24 06:42:40;;;;;;;24.53;18.83;;;2.30;99.90;;;4.09;68.71;98771.00;5207605;28;20232;-58
2021/03/24 06:45:39;;;;;;;23.23;19.00;;;2.60;99.90;;;4.56;67.46;98762.00;5214641;28;20225;-57
2021/03/24 06:48:47;;;;;;;23.50;18.13;;;2.80;99.90;;;5.18;64.69;98764.47;5215417;28;20194;-56
2021/03/24 06:52:11;;;;;;;21.07;17.90;;;3.00;99.90;;;5.25;63.21;98764.25;5209898;28;20200;-57
2021/03/24 06:55:25;;;;;;;21.13;17.80;;;3.20;99.90;;;5.73;62.67;98764.41;5218084;28;20270;-58
2021/03/24 06:58:54;;;;;;;22.03;18.60;;;3.30;99.90;;;6.40;60.63;98758.50;5209096;28;20240;-58
2021/03/24 07:01:49;;;;;;;25.13;18.47;;;3.70;99.90;;;6.77;59.21;98777.84;5216431;28;20655;-58
2021/03/24 07:05:24;;;;;;;20.70;17.90;;;3.90;99.90;;;7.17;57.29;98771.97;5222816;28;20252;-56
2021/03/24 07:08:27;;;;;;;24.00;18.93;;;4.20;99.90;;;7.38;56.79;98766.91;5179429;28;20220;-57
2021/03/24 07:11:13;;;;;;;23.47;19.70;;;4.40;99.90;;;7.63;56.45;98770.72;5214935;28;20578;-54
2021/03/24 07:14:19;;;;;;;22.73;18.63;;;4.50;99.90;;;7.34;55.84;98765.75;5219726;28;20213;-56
2021/03/24 07:17:17;;;;;;;21.70;18.10;;;4.50;99.90;;;7.03;57.34;98769.00;5227646;28;20552;-54
2021/03/24 07:20:11;;;;;;;22.30;19.80;;;4.60;99.90;;;7.05;58.48;98768.38;5207263;28;20202;-54
2021/03/24 07:23:07;;;;;;;20.97;18.73;;;4.90;99.90;;;7.21;57.98;98779.09;5205284;28;20222;-56
2021/03/24 07:25:45;;;;;;;21.10;18.63;;;5.10;99.90;;;7.41;58.12;98774.78;5206856;28;20198;-54
2021/03/24 07:29:01;;;;;;;21.10;18.73;;;5.30;99.90;;;7.37;58.29;98775.31;5204793;28;20209;-55
2021/03/24 07:32:07;;;;;;;24.07;18.87;;;5.40;99.90;;;7.53;58.18;98770.75;5212000;28;20712;-55
2021/03/24 07:35:06;;;;;;;21.10;18.97;;;5.50;99.90;;;7.47;57.65;98767.69;5207880;28;20244;-55
2021/03/24 07:38:27;;;;;;;23.93;19.67;;;5.60;99.90;;;7.24;57.56;98758.13;5214177;28;20248;-56
2021/03/24 07:41:48;;;;;;;24.37;19.03;;;5.70;99.90;;;7.33;58.67;98758.03;5205541;28;20453;-54
2021/03/24 07:44:43;;;;;;;23.50;20.47;;;5.80;99.90;;;7.50;58.17;98756.84;5211606;28;20301;-54
2021/03/24 07:47:52;;;;;;;22.23;19.27;;;6.20;99.90;;;7.81;57.63;98755.19;5224487;28;20226;-57
2021/03/24 07:50:33;;;;;;;23.20;18.07;;;6.40;99.90;;;7.85;57.70;98759.78;5217002;28;20283;-58
2021/03/24 07:53:20;;;;;;;23.30;20.77;;;6.40;99.90;;;8.18;57.07;98759.09;5204373;28;20692;-55
2021/03/24 07:56:03;;;;;;;23.67;19.13;;;6.80;99.90;;;8.29;56.09;98749.78;5206584;28;20196;-58
2021/03/24 07:59:18;;;;;;;23.77;20.33;;;7.00;99.90;;;8.32;55.74;98750.00;5212581;28;20696;-57
2021/03/24 08:02:03;;;;;;;23.33;18.87;;;6.90;99.90;;;8.35;56.10;98753.72;5206383;28;20220;-56
2021/03/24 08:04:57;;;;;;;20.47;18.10;;;7.20;99.90;;;8.54;55.58;98751.00;5209016;28;20264;-57
2021/03/24 08:07:36;;;;;;;22.73;19.00;;;7.30;99.90;;;8.85;56.41;98745.75;5218877;28;20190;-56
2021/03/24 08:10:31;;;;;;;21.70;18.43;;;7.50;99.90;;;8.86;55.65;98744.09;5213199;28;20197;-57
2021/03/24 08:13:53;;;;;;;23.10;18.47;;;7.70;99.90;;;8.69;55.54;98745.31;5203727;28;20194;-56
2021/03/24 08:17:11;;;;;;;22.27;19.33;;;7.50;99.90;;;9.09;55.10;98748.41;5223084;28;20197;-57
2021/03/24 08:20:15;;;;;;;21.80;17.90;;;7.90;99.90;;;9.21;55.62;98747.72;5210686;28;20693;-58
2021/03/24 08:23:33;;;;;;;23.33;18.73;;;8.30;99.90;;;9.42;56.47;98756.09;5207679;28;20300;-55
2021/03/24 08:26:20;;;;;;;21.37;17.57;;;8.60;99.90;;;9.75;54.64;98741.53;5211848;28;20232;-58
2021/03/24 08:29:03;;;;;;;22.97;20.07;;;8.90;99.90;;;9.80;54.46;98747.88;5216530;28;20292;-58
2021/03/24 08:32:40;;;;;;;22.40;18.93;;;9.10;99.90;;;10.08;53.42;98747.38;5210654;28;20197;-58
2021/03/24 08:35:42;;;;;;;21.60;18.63;;;9.20;99.90;;;10.37;53.13;98741.84;5160499;28;20237;-58
2021/03/24 08:38:44;;;;;;;21.83;18.33;;;9.60;99.90;;;10.76;50.93;98743.81;5211140;28;20181;-57
2021/03/24 08:42:07;;;;;;;21.10;18.20;;;10.10;99.90;;;10.83;50.38;98737.44;5204302;28;20296;-57
2021/03/24 08:44:48;;;;;;;22.93;18.57;;;10.10;99.90;;;10.76;51.25;98737.81;5208947;28;20217;-56
2021/03/24 08:47:24;;;;;;;18.40;16.40;;;10.00;99.90;;;10.72;50.07;98738.34;5203515;28;20204;-58
2021/03/24 08:50:00;;;;;;;19.70;17.00;;;9.70;99.90;;;10.83;50.19;98740.00;5217469;28;20201;-59
2021/03/24 08:52:44;;;;;;;19.40;17.10;;;10.00;99.90;;;11.15;49.14;98739.66;5216510;28;20241;-56
2021/03/24 08:55:38;;;;;;;21.13;17.60;;;10.50;99.20;;;11.22;49.34;98736.75;5216056;28;20216;-57
2021/03/24 08:58:17;;;;;;;20.03;17.73;;;10.60;99.30;;;11.39;49.40;98729.31;5217097;28;20208;-58
2021/03/24 09:01:18;;;;;;;20.03;17.20;;;10.70;99.50;;;11.55;50.09;98726.13;5218653;28;20194;-57
2021/03/24 09:04:27;;;;;;;20.50;17.63;;;10.90;99.60;;;11.72;49.74;98729.03;5216914;28;20220;-57
2021/03/24 09:07:10;;;;;;;22.65;18.05;;;11.00;99.20;;;12.05;47.93;98729.53;5218615;28;20194;-58
2021/03/24 09:10:09;;;;;;;19.85;17.35;;;11.50;98.00;;;11.89;48.13;98719.06;5206581;28;20717;-57
2021/03/24 09:12:49;;;;;;;20.27;17.65;;;11.20;98.30;;;11.90;48.69;98720.81;5212436;28;20290;-58
2021/03/24 09:15:27;;;;;;;21.92;17.85;;;11.20;98.30;;;11.85;48.05;98709.38;5224183;28;20646;-56
2021/03/24 09:18:20;;;;;;;19.27;16.58;;;11.00;98.40;;;12.12;48.35;98713.75;5213212;28;20204;-58
2021/03/24 09:21:11;;;;;;;19.23;16.30;;;11.20;98.40;;;12.39;45.96;98706.06;5211990;28;20621;-57
2021/03/24 09:24:30;;;;;;;21.02;17.00;;;11.70;97.20;;;12.31;47.61;98705.56;5208072;28;20226;-56
2021/03/24 09:27:50;;;;;;;20.63;17.20;;;11.70;97.90;;;12.47;46.62;98699.72;5214290;28;20202;-59
2021/03/24 09:31:11;;;;;;;21.27;16.88;;;11.80;96.50;;;12.45;46.53;98698.78;5210566;28;20280;-60
2021/03/24 09:33:51;;;;;;;20.65;17.77;;;11.80;97.20;;;12.60;45.51;98699.72;5217822;28;20572;-59
2021/03/24 09:36:52;;;;;;;21.85;16.77;;;12.00;96.70;;;12.75;46.41;98699.78;5223666;28;20205;-59
2021/03/24 09:39:34;;;;;;;19.08;17.08;;;12.20;96.20;;;12.37;47.38;98695.72;5224791;28;20285;-60
2021/03/24 09:42:20;;;;;;;19.40;17.30;;;11.90;96.80;;;12.48;47.34;98688.69;5218524;28;20217;-58
2021/03/24 09:45:05;;;;;;;20.63;17.58;;;12.00;97.10;;;12.63;47.06;98689.66;5216438;28;20225;-59
2021/03/24 09:47:45;;;;;;;23.05;18.13;;;12.10;96.90;;;12.89;46.77;98692.94;5221070;28;20197;-59
2021/03/24 09:50:34;;;;;;;18.63;16.65;;;12.20;96.70;;;12.93;46.49;98684.63;5208273;28;20201;-59
2021/03/24 09:53:15;;;;;;;21.25;18.25;;;12.30;96.90;;;12.88;45.35;98680.91;5209286;28;20201;-59
2021/03/24 09:56:03;;;;;;;21.88;18.92;;;12.20;96.20;;;12.74;46.20;98661.22;5207610;28;20201;-59
2021/03/24 09:59:02;;;;;;;20.20;17.23;;;12.20;96.90;;;13.02;47.74;98659.53;5210751;28;20212;-59
2021/03/24 10:01:49;;;;;;;21.00;18.40;;;12.50;97.10;;;12.98;45.59;98670.41;5206987;28;20293;-60
2021/03/24 10:04:45;;;;;;;20.67;16.70;;;12.40;95.80;;;13.27;44.82;98658.47;5208533;28;20213;-60
2021/03/24 10:07:23;;;;;;;20.80;17.42;;;12.60;96.00;;;13.39;44.58;98656.63;5209348;28;20204;-60
2021/03/24 10:09:59;;;;;;;19.15;16.95;;;12.70;95.60;;;13.20;46.18;98658.88;5218711;28;20203;-60
2021/03/24 10:12:35;;;;;;;22.08;17.63;;;12.60;96.40;;;13.33;45.54;98657.94;5215373;28;20587;-59
2021/03/24 10:15:26;;;;;;;17.90;16.02;;;12.70;96.00;;;13.29;46.68;98659.44;5208068;28;20590;-59
2021/03/24 10:18:08;;;;;;;18.10;16.08;;;12.70;96.70;;;13.46;46.06;98653.63;5214718;28;20280;-59
2021/03/24 10:20:47;;;;;;;18.23;16.00;;;12.80;96.60;;;13.71;44.98;98644.78;5211908;28;20194;-59
2021/03/24 10:23:27;;;;;;;18.55;15.68;;;13.10;95.20;;;13.97;43.01;98656.53;5205712;28;20222;-60
2021/03/24 10:26:13;;;;;;;19.42;16.48;;;13.20;94.80;;;13.67;43.56;98641.13;5217739;28;20244;-60
2021/03/24 10:28:52;;;;;;;20.02;17.40;;;13.10;94.40;;;13.47;43.64;98639.97;5219637;28;20200;-60
2021/03/24 10:31:31;;;;;;;18.58;15.98;;;12.90;94.70;;;13.56;44.91;98638.72;5216968;28;20197;-59
2021/03/24 10:34:18;;;;;;;18.40;14.73;;;12.90;95.10;;;13.49;45.03;98638.38;5225873;28;20224;-59
2021/03/24 10:37:00;;;;;;;16.42;14.27;;;12.90;95.40;;;13.83;43.42;98635.19;5215020;28;20206;-59
2021/03/24 10:42:23;;;;;;;16.48;14.35;;;13.30;93.40;;;14.06;42.67;98633.03;5204269;28;20613;-62
2021/03/24 10:45:05;;;;;;;16.13;14.43;;;13.50;93.30;;;13.81;43.95;98630.75;5206306;28;20198;-62
2021/03/24 10:47:41;;;;;;;17.00;15.07;;;13.10;94.30;;;13.94;44.30;98623.81;5206054;28;20206;-61
2021/03/24 10:50:36;;;;;;;19.02;16.70;;;13.30;95.10;;;14.02;44.21;98628.50;5210840;28;20271;-61
2021/03/24 10:53:14;;;;;;;18.27;15.55;;;13.20;94.60;;;13.94;45.48;98622.94;5216900;28;20562;-58
2021/03/24 10:56:03;;;;;;;17.55;15.30;;;13.30;95.20;;;13.90;44.03;98616.72;5217878;28;20201;-61
2021/03/24 10:58:50;;;;;;;17.45;15.63;;;13.30;94.80;;;13.85;44.12;98615.63;5226866;28;20634;-57
2021/03/24 11:01:30;;;;;;;15.95;14.25;;;13.00;94.20;;;13.84;44.25;98615.50;5221866;28;20724;-61
2021/03/24 11:04:39;;;;;;;15.57;13.88;;;13.20;94.60;;;14.03;43.47;98609.72;5225669;28;20308;-61
2021/03/24 11:07:16;;;;;;;17.80;15.18;;;13.30;94.40;;;14.24;42.98;98608.31;5206332;28;20198;-58
2021/03/24 11:09:55;;;;;;;16.05;14.45;;;13.50;93.80;;;14.18;43.15;98602.84;5219463;28;20193;-61
2021/03/24 11:12:37;;;;;;;17.50;15.48;;;13.40;94.10;;;14.28;43.41;98597.41;5226494;28;20283;-61
2021/03/24 11:15:20;;;;;;;15.68;14.13;;;13.50;94.10;;;14.31;42.45;98579.59;5227463;28;20566;-61
2021/03/24 11:18:02;;;;;;;17.05;13.57;;;13.50;93.80;;;14.23;42.90;98574.81;5226294;28;20189;-61
2021/03/24 11:20:46;;;;;;;16.25;14.20;;;13.50;93.40;;;14.29;43.37;98576.03;5223491;28;20271;-61
2021/03/24 11:23:25;;;;;;;16.02;14.18;;;13.60;93.80;;;14.35;43.08;98578.94;5226202;28;20696;-61
2021/03/24 11:26:02;;;;;;;17.13;15.32;;;13.50;94.30;;;14.46;42.42;98573.50;5223911;28;20288;-58